sensor_id;sensor_type;location;lat;lon;timestamp;P1;durP1;ratioP1;P2;durP2;ratioP2
24891;SDS011;12954;50.688;10.908;2023-01-08T00:00:16;5.88;;;4.70;;
24891;SDS011;12954;50.688;10.908;2023-01-08T00:02:44;6.07;;;5.47;;
24891;SDS011;12954;50.688;10.908;2023-01-08T00:05:15;5.90;;;5.20;;
24891;SDS011;12954;50.688;10.908;2023-01-08T00:07:45;6.93;;;5.07;;
24891;SDS011;12954;50.688;10.908;2023-01-08T00:10:13;6.18;;;5.45;;
24891;SDS011;12954;50.688;10.908;2023-01-08T00:12:42;6.32;;;5.72;;
24891;SDS011;12954;50.688;10.908;2023-01-08T00:15:10;5.82;;;5.32;;
24891;SDS011;12954;50.688;10.908;2023-01-08T00:17:39;5.80;;;5.30;;
24891;SDS011;12954;50.688;10.908;2023-01-08T00:20:07;6.15;;;5.55;;
24891;SDS011;12954;50.688;10.908;2023-01-08T00:22:36;7.10;;;6.40;;
24891;SDS011;12954;50.688;10.908;2023-01-08T00:25:07;6.63;;;5.93;;
24891;SDS011;12954;50.688;10.908;2023-01-08T00:27:35;6.65;;;6.05;;
24891;SDS011;12954;50.688;10.908;2023-01-08T00:30:04;6.70;;;6.10;;
24891;SDS011;12954;50.688;10.908;2023-01-08T00:32:33;7.82;;;6.25;;
24891;SDS011;12954;50.688;10.908;2023-01-08T00:35:01;6.78;;;6.10;;
24891;SDS011;12954;50.688;10.908;2023-01-08T00:37:30;6.85;;;6.25;;
24891;SDS011;12954;50.688;10.908;2023-01-08T00:40:00;6.00;;;5.18;;
24891;SDS011;12954;50.688;10.908;2023-01-08T00:42:29;6.25;;;5.45;;
24891;SDS011;12954;50.688;10.908;2023-01-08T00:44:58;6.47;;;5.88;;
24891;SDS011;12954;50.688;10.908;2023-01-08T00:47:26;6.53;;;5.82;;
24891;SDS011;12954;50.688;10.908;2023-01-08T00:49:54;6.28;;;5.68;;
24891;SDS011;12954;50.688;10.908;2023-01-08T00:52:23;7.07;;;5.32;;
24891;SDS011;12954;50.688;10.908;2023-01-08T00:54:52;5.47;;;4.97;;
24891;SDS011;12954;50.688;10.908;2023-01-08T00:57:20;8.45;;;5.63;;
24891;SDS011;12954;50.688;10.908;2023-01-08T00:59:50;5.72;;;5.03;;
24891;SDS011;12954;50.688;10.908;2023-01-08T01:02:18;5.72;;;5.10;;
24891;SDS011;12954;50.688;10.908;2023-01-08T01:04:46;5.78;;;5.20;;
24891;SDS011;12954;50.688;10.908;2023-01-08T01:07:15;6.03;;;5.43;;
24891;SDS011;12954;50.688;10.908;2023-01-08T01:09:44;6.72;;;6.13;;
24891;SDS011;12954;50.688;10.908;2023-01-08T01:12:12;7.55;;;6.82;;
24891;SDS011;12954;50.688;10.908;2023-01-08T01:14:41;7.60;;;6.55;;
24891;SDS011;12954;50.688;10.908;2023-01-08T01:17:11;7.65;;;6.95;;
24891;SDS011;12954;50.688;10.908;2023-01-08T01:19:40;6.75;;;6.05;;
24891;SDS011;12954;50.688;10.908;2023-01-08T01:22:08;7.18;;;6.47;;
24891;SDS011;12954;50.688;10.908;2023-01-08T01:24:36;6.47;;;5.88;;
24891;SDS011;12954;50.688;10.908;2023-01-08T01:27:05;6.38;;;5.72;;
24891;SDS011;12954;50.688;10.908;2023-01-08T01:29:33;6.22;;;5.60;;
24891;SDS011;12954;50.688;10.908;2023-01-08T01:32:02;8.63;;;5.93;;
24891;SDS011;12954;50.688;10.908;2023-01-08T01:34:33;6.35;;;5.75;;
24891;SDS011;12954;50.688;10.908;2023-01-08T01:37:01;7.13;;;6.22;;
24891;SDS011;12954;50.688;10.908;2023-01-08T01:39:30;6.47;;;5.50;;
24891;SDS011;12954;50.688;10.908;2023-01-08T01:41:58;7.43;;;5.80;;
24891;SDS011;12954;50.688;10.908;2023-01-08T01:44:37;6.43;;;5.55;;
24891;SDS011;12954;50.688;10.908;2023-01-08T01:47:13;6.00;;;5.07;;
24891;SDS011;12954;50.688;10.908;2023-01-08T01:49:49;6.28;;;5.68;;
24891;SDS011;12954;50.688;10.908;2023-01-08T01:52:23;6.65;;;5.57;;
24891;SDS011;12954;50.688;10.908;2023-01-08T01:54:53;5.88;;;4.97;;
24891;SDS011;12954;50.688;10.908;2023-01-08T01:57:22;6.00;;;5.22;;
24891;SDS011;12954;50.688;10.908;2023-01-08T01:59:51;5.70;;;5.10;;
24891;SDS011;12954;50.688;10.908;2023-01-08T02:02:22;5.80;;;5.05;;
24891;SDS011;12954;50.688;10.908;2023-01-08T02:04:52;5.32;;;4.82;;
24891;SDS011;12954;50.688;10.908;2023-01-08T02:07:21;5.63;;;4.78;;
24891;SDS011;12954;50.688;10.908;2023-01-08T02:09:57;5.20;;;4.68;;
24891;SDS011;12954;50.688;10.908;2023-01-08T02:12:31;6.35;;;4.88;;
24891;SDS011;12954;50.688;10.908;2023-01-08T02:15:04;7.25;;;4.57;;
24891;SDS011;12954;50.688;10.908;2023-01-08T02:17:39;5.85;;;4.93;;
24891;SDS011;12954;50.688;10.908;2023-01-08T02:20:18;5.82;;;4.90;;
24891;SDS011;12954;50.688;10.908;2023-01-08T02:28:40;6.85;;;4.32;;
24891;SDS011;12954;50.688;10.908;2023-01-08T02:31:13;5.57;;;4.60;;
24891;SDS011;12954;50.688;10.908;2023-01-08T02:33:43;5.15;;;4.53;;
24891;SDS011;12954;50.688;10.908;2023-01-08T02:36:26;5.97;;;5.10;;
24891;SDS011;12954;50.688;10.908;2023-01-08T02:39:13;7.22;;;4.70;;
24891;SDS011;12954;50.688;10.908;2023-01-08T02:41:52;5.95;;;5.35;;
24891;SDS011;12954;50.688;10.908;2023-01-08T02:44:31;5.07;;;4.55;;
24891;SDS011;12954;50.688;10.908;2023-01-08T02:47:09;8.30;;;4.90;;
24891;SDS011;12954;50.688;10.908;2023-01-08T02:49:43;5.10;;;4.53;;
24891;SDS011;12954;50.688;10.908;2023-01-08T02:52:13;4.82;;;4.32;;
24891;SDS011;12954;50.688;10.908;2023-01-08T02:54:45;5.93;;;4.85;;
24891;SDS011;12954;50.688;10.908;2023-01-08T02:57:16;5.68;;;5.03;;
24891;SDS011;12954;50.688;10.908;2023-01-08T02:59:46;5.88;;;4.60;;
24891;SDS011;12954;50.688;10.908;2023-01-08T03:02:16;6.07;;;4.70;;
24891;SDS011;12954;50.688;10.908;2023-01-08T03:04:54;5.63;;;5.03;;
24891;SDS011;12954;50.688;10.908;2023-01-08T03:07:27;5.47;;;4.85;;
24891;SDS011;12954;50.688;10.908;2023-01-08T03:09:56;6.07;;;4.68;;
24891;SDS011;12954;50.688;10.908;2023-01-08T03:12:28;6.53;;;4.90;;
24891;SDS011;12954;50.688;10.908;2023-01-08T03:15:08;5.13;;;4.38;;
24891;SDS011;12954;50.688;10.908;2023-01-08T03:17:41;6.72;;;4.95;;
24891;SDS011;12954;50.688;10.908;2023-01-08T03:20:13;5.40;;;4.90;;
24891;SDS011;12954;50.688;10.908;2023-01-08T03:22:44;4.88;;;4.35;;
24891;SDS011;12954;50.688;10.908;2023-01-08T03:25:16;5.97;;;4.88;;
24891;SDS011;12954;50.688;10.908;2023-01-08T03:27:49;5.97;;;4.72;;
24891;SDS011;12954;50.688;10.908;2023-01-08T03:30:22;5.78;;;5.28;;
24891;SDS011;12954;50.688;10.908;2023-01-08T03:32:52;5.90;;;4.80;;
24891;SDS011;12954;50.688;10.908;2023-01-08T03:35:25;5.83;;;4.70;;
24891;SDS011;12954;50.688;10.908;2023-01-08T03:37:55;6.72;;;5.00;;
24891;SDS011;12954;50.688;10.908;2023-01-08T03:40:28;5.90;;;5.15;;
24891;SDS011;12954;50.688;10.908;2023-01-08T03:43:03;5.43;;;4.90;;
24891;SDS011;12954;50.688;10.908;2023-01-08T03:45:31;7.15;;;4.50;;
24891;SDS011;12954;50.688;10.908;2023-01-08T03:48:04;5.95;;;4.78;;
24891;SDS011;12954;50.688;10.908;2023-01-08T03:50:34;5.50;;;4.63;;
24891;SDS011;12954;50.688;10.908;2023-01-08T03:53:02;5.13;;;4.63;;
24891;SDS011;12954;50.688;10.908;2023-01-08T03:55:30;5.55;;;4.90;;
24891;SDS011;12954;50.688;10.908;2023-01-08T03:57:59;5.57;;;4.68;;
24891;SDS011;12954;50.688;10.908;2023-01-08T04:00:29;4.90;;;4.40;;
24891;SDS011;12954;50.688;10.908;2023-01-08T04:02:57;5.40;;;4.78;;
24891;SDS011;12954;50.688;10.908;2023-01-08T04:05:26;5.78;;;4.82;;
24891;SDS011;12954;50.688;10.908;2023-01-08T04:07:54;4.75;;;4.28;;
24891;SDS011;12954;50.688;10.908;2023-01-08T04:10:23;6.50;;;4.53;;
24891;SDS011;12954;50.688;10.908;2023-01-08T04:12:52;7.78;;;4.85;;
24891;SDS011;12954;50.688;10.908;2023-01-08T04:15:20;5.95;;;4.70;;
24891;SDS011;12954;50.688;10.908;2023-01-08T04:17:50;5.30;;;4.38;;
24891;SDS011;12954;50.688;10.908;2023-01-08T04:20:20;4.95;;;4.25;;
24891;SDS011;12954;50.688;10.908;2023-01-08T04:22:48;8.02;;;5.82;;
24891;SDS011;12954;50.688;10.908;2023-01-08T04:25:17;6.15;;;5.47;;
24891;SDS011;12954;50.688;10.908;2023-01-08T04:27:45;11.90;;;7.40;;
24891;SDS011;12954;50.688;10.908;2023-01-08T04:30:14;31.25;;;18.30;;
24891;SDS011;12954;50.688;10.908;2023-01-08T04:32:42;26.98;;;16.20;;
24891;SDS011;12954;50.688;10.908;2023-01-08T04:35:12;103.50;;;49.40;;
24891;SDS011;12954;50.688;10.908;2023-01-08T04:37:41;58.70;;;29.08;;
24891;SDS011;12954;50.688;10.908;2023-01-08T04:40:09;35.03;;;21.42;;
24891;SDS011;12954;50.688;10.908;2023-01-08T04:42:38;45.13;;;31.15;;
24891;SDS011;12954;50.688;10.908;2023-01-08T04:45:07;15.30;;;11.70;;
24891;SDS011;12954;50.688;10.908;2023-01-08T04:47:36;11.02;;;9.60;;
24891;SDS011;12954;50.688;10.908;2023-01-08T04:50:05;16.95;;;15.15;;
24891;SDS011;12954;50.688;10.908;2023-01-08T04:52:35;10.48;;;9.48;;
24891;SDS011;12954;50.688;10.908;2023-01-08T04:55:04;7.22;;;6.47;;
24891;SDS011;12954;50.688;10.908;2023-01-08T04:57:33;6.80;;;6.10;;
24891;SDS011;12954;50.688;10.908;2023-01-08T05:00:01;5.60;;;4.93;;
24891;SDS011;12954;50.688;10.908;2023-01-08T05:02:29;7.57;;;6.78;;
24891;SDS011;12954;50.688;10.908;2023-01-08T05:04:58;6.57;;;5.90;;
24891;SDS011;12954;50.688;10.908;2023-01-08T05:07:26;6.25;;;5.65;;
24891;SDS011;12954;50.688;10.908;2023-01-08T05:09:56;6.20;;;5.32;;
24891;SDS011;12954;50.688;10.908;2023-01-08T05:12:25;6.05;;;5.40;;
24891;SDS011;12954;50.688;10.908;2023-01-08T05:14:53;6.18;;;4.85;;
24891;SDS011;12954;50.688;10.908;2023-01-08T05:17:21;4.72;;;4.32;;
24891;SDS011;12954;50.688;10.908;2023-01-08T05:19:50;5.57;;;5.07;;
24891;SDS011;12954;50.688;10.908;2023-01-08T05:22:18;6.47;;;4.97;;
24891;SDS011;12954;50.688;10.908;2023-01-08T05:24:47;5.57;;;5.05;;
24891;SDS011;12954;50.688;10.908;2023-01-08T05:27:16;5.93;;;5.05;;
24891;SDS011;12954;50.688;10.908;2023-01-08T05:29:45;7.10;;;5.20;;
24891;SDS011;12954;50.688;10.908;2023-01-08T05:32:14;5.70;;;5.10;;
24891;SDS011;12954;50.688;10.908;2023-01-08T05:34:44;6.45;;;5.38;;
24891;SDS011;12954;50.688;10.908;2023-01-08T05:37:12;7.75;;;5.85;;
24891;SDS011;12954;50.688;10.908;2023-01-08T05:39:41;6.00;;;5.40;;
24891;SDS011;12954;50.688;10.908;2023-01-08T05:42:09;8.68;;;6.10;;
24891;SDS011;12954;50.688;10.908;2023-01-08T05:44:39;9.35;;;5.82;;
24891;SDS011;12954;50.688;10.908;2023-01-08T05:47:07;6.90;;;5.25;;
24891;SDS011;12954;50.688;10.908;2023-01-08T05:49:36;5.80;;;5.07;;
24891;SDS011;12954;50.688;10.908;2023-01-08T05:52:04;5.90;;;5.25;;
24891;SDS011;12954;50.688;10.908;2023-01-08T05:54:33;6.28;;;5.22;;
24891;SDS011;12954;50.688;10.908;2023-01-08T05:57:01;5.90;;;5.30;;
24891;SDS011;12954;50.688;10.908;2023-01-08T05:59:29;6.25;;;5.60;;
24891;SDS011;12954;50.688;10.908;2023-01-08T06:01:59;7.38;;;5.78;;
24891;SDS011;12954;50.688;10.908;2023-01-08T06:04:27;7.05;;;5.50;;
24891;SDS011;12954;50.688;10.908;2023-01-08T06:06:56;7.22;;;5.05;;
24891;SDS011;12954;50.688;10.908;2023-01-08T06:09:24;7.18;;;5.45;;
24891;SDS011;12954;50.688;10.908;2023-01-08T06:11:53;5.53;;;4.47;;
24891;SDS011;12954;50.688;10.908;2023-01-08T06:14:23;5.95;;;5.03;;
24891;SDS011;12954;50.688;10.908;2023-01-08T06:16:51;5.93;;;5.20;;
24891;SDS011;12954;50.688;10.908;2023-01-08T06:19:21;6.65;;;4.78;;
24891;SDS011;12954;50.688;10.908;2023-01-08T06:21:50;6.88;;;5.28;;
24891;SDS011;12954;50.688;10.908;2023-01-08T06:24:18;6.85;;;6.15;;
24891;SDS011;12954;50.688;10.908;2023-01-08T06:26:46;7.03;;;5.32;;
24891;SDS011;12954;50.688;10.908;2023-01-08T06:29:15;7.90;;;6.00;;
24891;SDS011;12954;50.688;10.908;2023-01-08T06:31:43;8.68;;;5.78;;
24891;SDS011;12954;50.688;10.908;2023-01-08T06:34:11;7.65;;;6.03;;
24891;SDS011;12954;50.688;10.908;2023-01-08T06:36:41;8.98;;;6.82;;
24891;SDS011;12954;50.688;10.908;2023-01-08T06:39:10;8.38;;;5.90;;
24891;SDS011;12954;50.688;10.908;2023-01-08T06:41:38;5.97;;;5.07;;
24891;SDS011;12954;50.688;10.908;2023-01-08T06:44:07;10.63;;;6.47;;
24891;SDS011;12954;50.688;10.908;2023-01-08T06:46:35;7.10;;;6.07;;
24891;SDS011;12954;50.688;10.908;2023-01-08T06:49:06;7.43;;;5.95;;
24891;SDS011;12954;50.688;10.908;2023-01-08T06:51:34;7.60;;;6.07;;
24891;SDS011;12954;50.688;10.908;2023-01-08T06:54:04;7.90;;;6.78;;
24891;SDS011;12954;50.688;10.908;2023-01-08T06:56:33;9.57;;;7.30;;
24891;SDS011;12954;50.688;10.908;2023-01-08T06:59:18;7.43;;;5.93;;
24891;SDS011;12954;50.688;10.908;2023-01-08T07:01:46;9.25;;;5.88;;
24891;SDS011;12954;50.688;10.908;2023-01-08T07:04:15;6.55;;;5.70;;
24891;SDS011;12954;50.688;10.908;2023-01-08T07:06:44;7.78;;;6.38;;
24891;SDS011;12954;50.688;10.908;2023-01-08T07:09:14;11.02;;;8.02;;
24891;SDS011;12954;50.688;10.908;2023-01-08T07:11:42;8.07;;;7.03;;
24891;SDS011;12954;50.688;10.908;2023-01-08T07:14:11;6.93;;;6.20;;
24891;SDS011;12954;50.688;10.908;2023-01-08T07:16:39;6.80;;;5.72;;
24891;SDS011;12954;50.688;10.908;2023-01-08T07:19:07;7.35;;;5.90;;
24891;SDS011;12954;50.688;10.908;2023-01-08T07:21:36;8.18;;;6.43;;
24891;SDS011;12954;50.688;10.908;2023-01-08T07:24:04;6.85;;;6.15;;
24891;SDS011;12954;50.688;10.908;2023-01-08T07:26:35;6.03;;;5.43;;
24891;SDS011;12954;50.688;10.908;2023-01-08T07:29:05;5.78;;;5.18;;
24891;SDS011;12954;50.688;10.908;2023-01-08T07:31:33;6.90;;;5.80;;
24891;SDS011;12954;50.688;10.908;2023-01-08T07:34:01;6.47;;;5.50;;
24891;SDS011;12954;50.688;10.908;2023-01-08T07:36:30;6.43;;;5.82;;
24891;SDS011;12954;50.688;10.908;2023-01-08T07:38:58;8.35;;;5.63;;
24891;SDS011;12954;50.688;10.908;2023-01-08T07:41:27;5.80;;;5.20;;
24891;SDS011;12954;50.688;10.908;2023-01-08T07:43:57;6.10;;;5.50;;
24891;SDS011;12954;50.688;10.908;2023-01-08T07:46:25;6.38;;;5.78;;
24891;SDS011;12954;50.688;10.908;2023-01-08T07:48:54;6.40;;;5.80;;
24891;SDS011;12954;50.688;10.908;2023-01-08T07:51:22;5.85;;;5.25;;
24891;SDS011;12954;50.688;10.908;2023-01-08T07:53:51;6.85;;;5.47;;
24891;SDS011;12954;50.688;10.908;2023-01-08T07:56:21;5.75;;;5.15;;
24891;SDS011;12954;50.688;10.908;2023-01-08T07:58:51;6.78;;;5.85;;
24891;SDS011;12954;50.688;10.908;2023-01-08T08:01:21;7.18;;;6.28;;
24891;SDS011;12954;50.688;10.908;2023-01-08T08:03:51;7.82;;;6.15;;
24891;SDS011;12954;50.688;10.908;2023-01-08T08:06:20;6.40;;;5.80;;
24891;SDS011;12954;50.688;10.908;2023-01-08T08:08:48;7.03;;;6.32;;
24891;SDS011;12954;50.688;10.908;2023-01-08T08:11:16;7.90;;;5.97;;
24891;SDS011;12954;50.688;10.908;2023-01-08T08:13:45;6.55;;;5.72;;
24891;SDS011;12954;50.688;10.908;2023-01-08T08:16:16;5.85;;;5.20;;
24891;SDS011;12954;50.688;10.908;2023-01-08T08:18:46;6.63;;;6.00;;
24891;SDS011;12954;50.688;10.908;2023-01-08T08:21:14;6.75;;;5.80;;
24891;SDS011;12954;50.688;10.908;2023-01-08T08:23:42;7.28;;;5.95;;
24891;SDS011;12954;50.688;10.908;2023-01-08T08:26:11;6.80;;;5.97;;
24891;SDS011;12954;50.688;10.908;2023-01-08T08:28:39;7.10;;;6.25;;
24891;SDS011;12954;50.688;10.908;2023-01-08T08:31:08;6.40;;;5.80;;
24891;SDS011;12954;50.688;10.908;2023-01-08T08:33:36;6.70;;;5.72;;
24891;SDS011;12954;50.688;10.908;2023-01-08T08:36:07;7.03;;;6.32;;
24891;SDS011;12954;50.688;10.908;2023-01-08T08:38:36;7.53;;;6.72;;
24891;SDS011;12954;50.688;10.908;2023-01-08T08:41:05;6.82;;;6.00;;
24891;SDS011;12954;50.688;10.908;2023-01-08T08:43:34;7.10;;;6.20;;
24891;SDS011;12954;50.688;10.908;2023-01-08T08:46:02;6.68;;;5.72;;
24891;SDS011;12954;50.688;10.908;2023-01-08T08:48:31;7.13;;;5.97;;
24891;SDS011;12954;50.688;10.908;2023-01-08T08:50:59;5.70;;;5.10;;
24891;SDS011;12954;50.688;10.908;2023-01-08T08:53:29;6.00;;;5.10;;
24891;SDS011;12954;50.688;10.908;2023-01-08T08:55:57;5.30;;;4.55;;
24891;SDS011;12954;50.688;10.908;2023-01-08T08:58:25;5.05;;;4.10;;
24891;SDS011;12954;50.688;10.908;2023-01-08T09:00:54;5.25;;;4.60;;
24891;SDS011;12954;50.688;10.908;2023-01-08T09:03:27;4.30;;;3.90;;
24891;SDS011;12954;50.688;10.908;2023-01-08T09:05:56;4.60;;;3.50;;
24891;SDS011;12954;50.688;10.908;2023-01-08T09:08:25;4.35;;;3.95;;
24891;SDS011;12954;50.688;10.908;2023-01-08T09:10:55;4.30;;;3.80;;
24891;SDS011;12954;50.688;10.908;2023-01-08T09:13:23;4.10;;;3.42;;
24891;SDS011;12954;50.688;10.908;2023-01-08T09:15:51;3.72;;;3.33;;
24891;SDS011;12954;50.688;10.908;2023-01-08T09:18:20;5.15;;;3.95;;
24891;SDS011;12954;50.688;10.908;2023-01-08T09:20:48;4.40;;;3.42;;
24891;SDS011;12954;50.688;10.908;2023-01-08T09:23:17;4.75;;;4.10;;
24891;SDS011;12954;50.688;10.908;2023-01-08T09:25:45;5.07;;;4.57;;
24891;SDS011;12954;50.688;10.908;2023-01-08T09:28:15;4.70;;;4.18;;
24891;SDS011;12954;50.688;10.908;2023-01-08T09:30:43;3.55;;;3.25;;
24891;SDS011;12954;50.688;10.908;2023-01-08T09:33:12;5.30;;;4.65;;
24891;SDS011;12954;50.688;10.908;2023-01-08T09:35:41;5.45;;;4.05;;
24891;SDS011;12954;50.688;10.908;2023-01-08T09:38:10;4.45;;;3.90;;
24891;SDS011;12954;50.688;10.908;2023-01-08T09:40:39;5.30;;;3.50;;
24891;SDS011;12954;50.688;10.908;2023-01-08T09:43:18;4.57;;;4.10;;
24891;SDS011;12954;50.688;10.908;2023-01-08T09:45:49;5.90;;;5.10;;
24891;SDS011;12954;50.688;10.908;2023-01-08T09:48:21;3.97;;;3.28;;
24891;SDS011;12954;50.688;10.908;2023-01-08T09:50:53;4.03;;;3.43;;
24891;SDS011;12954;50.688;10.908;2023-01-08T09:53:21;3.47;;;3.17;;
24891;SDS011;12954;50.688;10.908;2023-01-08T09:55:53;4.40;;;3.17;;
24891;SDS011;12954;50.688;10.908;2023-01-08T09:58:41;3.42;;;2.80;;
24891;SDS011;12954;50.688;10.908;2023-01-08T10:01:13;3.13;;;2.83;;
24891;SDS011;12954;50.688;10.908;2023-01-08T10:03:45;3.80;;;3.20;;
24891;SDS011;12954;50.688;10.908;2023-01-08T10:06:16;4.70;;;3.15;;
24891;SDS011;12954;50.688;10.908;2023-01-08T10:08:45;4.82;;;3.60;;
24891;SDS011;12954;50.688;10.908;2023-01-08T10:11:13;4.07;;;3.67;;
24891;SDS011;12954;50.688;10.908;2023-01-08T10:13:45;4.10;;;3.65;;
24891;SDS011;12954;50.688;10.908;2023-01-08T10:16:19;6.75;;;5.72;;
24891;SDS011;12954;50.688;10.908;2023-01-08T10:18:52;5.93;;;4.78;;
24891;SDS011;12954;50.688;10.908;2023-01-08T10:21:21;4.80;;;4.28;;
24891;SDS011;12954;50.688;10.908;2023-01-08T10:23:56;4.90;;;4.35;;
24891;SDS011;12954;50.688;10.908;2023-01-08T10:26:25;6.72;;;4.82;;
24891;SDS011;12954;50.688;10.908;2023-01-08T10:29:07;6.20;;;4.72;;
24891;SDS011;12954;50.688;10.908;2023-01-08T10:31:43;4.00;;;3.25;;
24891;SDS011;12954;50.688;10.908;2023-01-08T10:36:59;7.20;;;4.55;;
24891;SDS011;12954;50.688;10.908;2023-01-08T10:39:28;6.32;;;5.15;;
24891;SDS011;12954;50.688;10.908;2023-01-08T10:42:02;4.43;;;3.70;;
24891;SDS011;12954;50.688;10.908;2023-01-08T10:44:34;4.43;;;3.22;;
24891;SDS011;12954;50.688;10.908;2023-01-08T10:47:03;4.72;;;3.88;;
24891;SDS011;12954;50.688;10.908;2023-01-08T10:49:33;2.97;;;2.60;;
24891;SDS011;12954;50.688;10.908;2023-01-08T10:52:18;3.33;;;2.58;;
24891;SDS011;12954;50.688;10.908;2023-01-08T10:54:53;3.58;;;3.15;;
24891;SDS011;12954;50.688;10.908;2023-01-08T10:57:23;2.88;;;2.40;;
24891;SDS011;12954;50.688;10.908;2023-01-08T10:59:54;3.80;;;3.25;;
24891;SDS011;12954;50.688;10.908;2023-01-08T11:02:27;4.20;;;2.45;;
24891;SDS011;12954;50.688;10.908;2023-01-08T11:05:03;3.80;;;2.22;;
24891;SDS011;12954;50.688;10.908;2023-01-08T11:07:35;2.50;;;2.30;;
24891;SDS011;12954;50.688;10.908;2023-01-08T11:10:06;2.97;;;2.67;;
24891;SDS011;12954;50.688;10.908;2023-01-08T11:12:52;2.40;;;2.20;;
24891;SDS011;12954;50.688;10.908;2023-01-08T11:15:28;1.95;;;1.70;;
24891;SDS011;12954;50.688;10.908;2023-01-08T11:18:05;2.20;;;2.00;;
24891;SDS011;12954;50.688;10.908;2023-01-08T11:20:38;2.78;;;1.90;;
24891;SDS011;12954;50.688;10.908;2023-01-08T11:23:12;2.08;;;1.80;;
24891;SDS011;12954;50.688;10.908;2023-01-08T11:25:44;1.48;;;1.38;;
24891;SDS011;12954;50.688;10.908;2023-01-08T11:28:28;2.20;;;1.50;;
24891;SDS011;12954;50.688;10.908;2023-01-08T11:31:12;3.67;;;1.45;;
24891;SDS011;12954;50.688;10.908;2023-01-08T11:33:44;1.88;;;1.40;;
24891;SDS011;12954;50.688;10.908;2023-01-08T11:36:19;1.50;;;1.40;;
24891;SDS011;12954;50.688;10.908;2023-01-08T11:38:51;1.52;;;1.42;;
24891;SDS011;12954;50.688;10.908;2023-01-08T11:41:23;4.57;;;3.05;;
24891;SDS011;12954;50.688;10.908;2023-01-08T11:44:07;3.42;;;2.50;;
24891;SDS011;12954;50.688;10.908;2023-01-08T11:46:50;2.72;;;1.92;;
24891;SDS011;12954;50.688;10.908;2023-01-08T11:49:39;2.00;;;1.63;;
24891;SDS011;12954;50.688;10.908;2023-01-08T11:52:22;1.95;;;1.75;;
24891;SDS011;12954;50.688;10.908;2023-01-08T11:55:04;2.10;;;1.80;;
24891;SDS011;12954;50.688;10.908;2023-01-08T11:57:50;2.45;;;2.20;;
24891;SDS011;12954;50.688;10.908;2023-01-08T12:00:30;1.98;;;1.77;;
24891;SDS011;12954;50.688;10.908;2023-01-08T12:03:10;2.00;;;1.70;;
24891;SDS011;12954;50.688;10.908;2023-01-08T12:05:48;1.92;;;1.52;;
24891;SDS011;12954;50.688;10.908;2023-01-08T12:08:26;1.88;;;1.67;;
24891;SDS011;12954;50.688;10.908;2023-01-08T12:11:05;2.38;;;1.80;;
24891;SDS011;12954;50.688;10.908;2023-01-08T12:13:50;3.15;;;2.15;;
24891;SDS011;12954;50.688;10.908;2023-01-08T12:16:31;1.88;;;1.70;;
24891;SDS011;12954;50.688;10.908;2023-01-08T12:19:12;4.57;;;3.33;;
24891;SDS011;12954;50.688;10.908;2023-01-08T12:21:51;5.78;;;4.63;;
24891;SDS011;12954;50.688;10.908;2023-01-08T12:24:48;2.28;;;1.60;;
24891;SDS011;12954;50.688;10.908;2023-01-08T12:27:38;2.40;;;1.88;;
24891;SDS011;12954;50.688;10.908;2023-01-08T12:30:25;2.50;;;2.30;;
24891;SDS011;12954;50.688;10.908;2023-01-08T12:33:02;2.63;;;2.28;;
24891;SDS011;12954;50.688;10.908;2023-01-08T12:35:37;2.72;;;1.95;;
24891;SDS011;12954;50.688;10.908;2023-01-08T12:38:09;3.15;;;2.67;;
24891;SDS011;12954;50.688;10.908;2023-01-08T12:40:41;2.03;;;1.80;;
24891;SDS011;12954;50.688;10.908;2023-01-08T12:43:14;2.88;;;2.35;;
24891;SDS011;12954;50.688;10.908;2023-01-08T12:45:49;3.05;;;2.40;;
24891;SDS011;12954;50.688;10.908;2023-01-08T12:48:21;3.50;;;2.42;;
24891;SDS011;12954;50.688;10.908;2023-01-08T12:51:06;3.20;;;2.53;;
24891;SDS011;12954;50.688;10.908;2023-01-08T12:53:48;2.28;;;2.08;;
24891;SDS011;12954;50.688;10.908;2023-01-08T12:56:24;2.72;;;2.00;;
24891;SDS011;12954;50.688;10.908;2023-01-08T12:59:03;4.07;;;2.70;;
24891;SDS011;12954;50.688;10.908;2023-01-08T13:01:41;2.75;;;2.30;;
24891;SDS011;12954;50.688;10.908;2023-01-08T13:04:14;2.58;;;2.03;;
24891;SDS011;12954;50.688;10.908;2023-01-08T13:06:51;2.25;;;2.00;;
24891;SDS011;12954;50.688;10.908;2023-01-08T13:09:26;2.70;;;2.50;;
24891;SDS011;12954;50.688;10.908;2023-01-08T13:11:55;3.65;;;2.90;;
24891;SDS011;12954;50.688;10.908;2023-01-08T13:14:25;3.90;;;2.55;;
24891;SDS011;12954;50.688;10.908;2023-01-08T13:17:01;2.85;;;2.55;;
24891;SDS011;12954;50.688;10.908;2023-01-08T13:19:33;5.78;;;3.35;;
24891;SDS011;12954;50.688;10.908;2023-01-08T13:22:19;3.45;;;2.90;;
24891;SDS011;12954;50.688;10.908;2023-01-08T13:24:51;3.72;;;2.30;;
24891;SDS011;12954;50.688;10.908;2023-01-08T13:27:34;9.95;;;4.88;;
24891;SDS011;12954;50.688;10.908;2023-01-08T13:30:03;3.88;;;2.90;;
24891;SDS011;12954;50.688;10.908;2023-01-08T13:32:46;2.38;;;1.92;;
24891;SDS011;12954;50.688;10.908;2023-01-08T13:35:19;2.40;;;1.75;;
24891;SDS011;12954;50.688;10.908;2023-01-08T13:38:04;2.10;;;1.90;;
24891;SDS011;12954;50.688;10.908;2023-01-08T13:40:50;3.05;;;2.00;;
24891;SDS011;12954;50.688;10.908;2023-01-08T13:43:23;1.92;;;1.65;;
24891;SDS011;12954;50.688;10.908;2023-01-08T13:46:05;2.97;;;2.60;;
24891;SDS011;12954;50.688;10.908;2023-01-08T13:48:46;4.13;;;2.88;;
24891;SDS011;12954;50.688;10.908;2023-01-08T13:51:24;3.35;;;2.17;;
24891;SDS011;12954;50.688;10.908;2023-01-08T13:54:04;2.90;;;2.50;;
24891;SDS011;12954;50.688;10.908;2023-01-08T13:56:43;2.83;;;2.50;;
24891;SDS011;12954;50.688;10.908;2023-01-08T13:59:19;4.28;;;3.00;;
24891;SDS011;12954;50.688;10.908;2023-01-08T14:01:55;2.30;;;2.10;;
24891;SDS011;12954;50.688;10.908;2023-01-08T14:04:26;2.47;;;2.22;;
24891;SDS011;12954;50.688;10.908;2023-01-08T14:07:04;3.17;;;1.88;;
24891;SDS011;12954;50.688;10.908;2023-01-08T14:09:41;2.10;;;1.90;;
24891;SDS011;12954;50.688;10.908;2023-01-08T14:12:10;2.70;;;1.85;;
24891;SDS011;12954;50.688;10.908;2023-01-08T14:14:42;2.63;;;2.10;;
24891;SDS011;12954;50.688;10.908;2023-01-08T14:17:15;2.00;;;1.80;;
24891;SDS011;12954;50.688;10.908;2023-01-08T14:19:45;2.00;;;1.80;;
24891;SDS011;12954;50.688;10.908;2023-01-08T14:22:17;2.38;;;1.80;;
24891;SDS011;12954;50.688;10.908;2023-01-08T14:24:54;2.10;;;1.70;;
24891;SDS011;12954;50.688;10.908;2023-01-08T14:27:25;3.08;;;1.77;;
24891;SDS011;12954;50.688;10.908;2023-01-08T14:29:55;1.92;;;1.73;;
24891;SDS011;12954;50.688;10.908;2023-01-08T14:32:25;1.90;;;1.80;;
24891;SDS011;12954;50.688;10.908;2023-01-08T14:34:56;1.40;;;1.30;;
24891;SDS011;12954;50.688;10.908;2023-01-08T14:37:26;1.38;;;1.20;;
24891;SDS011;12954;50.688;10.908;2023-01-08T14:39:56;1.20;;;0.95;;
24891;SDS011;12954;50.688;10.908;2023-01-08T14:42:25;2.53;;;1.05;;
24891;SDS011;12954;50.688;10.908;2023-01-08T14:45:14;2.22;;;1.40;;
24891;SDS011;12954;50.688;10.908;2023-01-08T14:47:46;1.92;;;1.27;;
24891;SDS011;12954;50.688;10.908;2023-01-08T14:50:19;1.80;;;1.38;;
24891;SDS011;12954;50.688;10.908;2023-01-08T14:52:51;2.25;;;1.70;;
24891;SDS011;12954;50.688;10.908;2023-01-08T14:55:24;1.95;;;1.75;;
24891;SDS011;12954;50.688;10.908;2023-01-08T14:57:54;1.60;;;1.50;;
24891;SDS011;12954;50.688;10.908;2023-01-08T15:00:24;1.90;;;1.30;;
24891;SDS011;12954;50.688;10.908;2023-01-08T15:02:55;1.92;;;1.73;;
24891;SDS011;12954;50.688;10.908;2023-01-08T15:05:25;1.58;;;1.35;;
24891;SDS011;12954;50.688;10.908;2023-01-08T15:07:59;1.77;;;1.35;;